Time;durP1;ratioP1;P1;durP2;ratioP2;P2;SDS_P1;SDS_P2;PMS_P1;PMS_P2;Temp;Humidity;BMP_temperature;BMP_pressure;BME280_temperature;BME280_humidity;BME280_pressure;Samples;Min_cycle;Max_cycle;Signal;HPM_P1;HPM_P2
2021/01/31 00:02:26;;;;;;;32.83;18.10;;;;;;;-3.44;75.70;100545.28;10121428;28;20046;-70
2021/01/31 00:07:22;;;;;;;31.95;18.35;;;;;;;-3.44;75.34;100551.44;10132966;28;20062;-67
2021/01/31 00:12:18;;;;;;;30.95;17.75;;;;;;;-3.47;75.16;100553.78;10133988;28;20498;-69
2021/01/31 00:17:15;;;;;;;32.20;17.17;;;;;;;-3.48;74.91;100561.00;10135580;28;20065;-68
2021/01/31 00:22:11;;;;;;;33.47;17.60;;;;;;;-3.51;74.47;100555.28;10136574;28;20062;-70
2021/01/31 00:27:07;;;;;;;31.25;16.98;;;;;;;-3.55;74.20;100560.28;10122701;28;20113;-70
2021/01/31 00:32:03;;;;;;;31.67;17.00;;;;;;;-3.64;74.50;100557.13;10121728;28;20050;-67
2021/01/31 00:36:59;;;;;;;32.47;17.92;;;;;;;-3.64;74.87;100565.13;10115444;28;20051;-70
2021/01/31 00:41:55;;;;;;;28.67;17.60;;;;;;;-3.67;74.63;100560.22;10112063;28;20054;-68
2021/01/31 00:46:51;;;;;;;38.13;19.25;;;;;;;-3.61;74.62;100555.84;10114192;28;20051;-68
2021/01/31 00:51:47;;;;;;;33.30;17.67;;;;;;;-3.64;74.79;100553.63;10104434;28;20062;-69
2021/01/31 00:56:43;;;;;;;38.35;19.38;;;;;;;-3.68;74.46;100555.94;10096534;28;20504;-68
2021/01/31 01:01:39;;;;;;;41.35;18.27;;;;;;;-3.74;74.33;100556.81;10105708;28;20039;-69
2021/01/31 01:06:35;;;;;;;42.80;21.50;;;;;;;-3.80;74.55;100555.09;10112472;28;20055;-70
2021/01/31 01:11:31;;;;;;;41.47;19.33;;;;;;;-3.84;74.23;100556.56;10117598;28;20050;-69
2021/01/31 01:16:27;;;;;;;37.30;18.33;;;;;;;-3.89;73.72;100553.78;10135475;28;20051;-70
2021/01/31 01:21:23;;;;;;;34.20;17.63;;;;;;;-3.88;74.51;100550.03;10153188;28;20077;-68
2021/01/31 01:26:19;;;;;;;37.83;19.75;;;;;;;-3.90;74.11;100554.78;10140699;28;20054;-70
2021/01/31 01:31:15;;;;;;;41.20;20.63;;;;;;;-3.98;73.42;100553.25;10128771;28;20457;-69
2021/01/31 01:36:11;;;;;;;41.90;18.42;;;;;;;-3.94;73.62;100564.31;10094806;28;20053;-70
2021/01/31 01:41:08;;;;;;;41.20;19.38;;;;;;;-4.04;73.83;100568.34;10111473;28;20046;-70
2021/01/31 01:46:19;;;;;;;35.90;17.73;;;;;;;-4.10;73.72;100563.88;10112452;28;20094;-71
2021/01/31 01:51:18;;;;;;;35.92;19.38;;;;;;;-4.13;73.91;100553.66;10087261;28;20058;-68
2021/01/31 01:56:23;;;;;;;37.30;19.02;;;;;;;-4.15;74.13;100539.72;10099927;28;20042;-70
2021/01/31 02:01:20;;;;;;;40.05;19.83;;;;;;;-4.09;74.48;100538.81;10132239;28;20117;-68
2021/01/31 02:06:22;;;;;;;39.10;20.15;;;;;;;-4.12;73.53;100539.25;10133074;28;20042;-68
2021/01/31 02:11:18;;;;;;;40.13;18.42;;;;;;;-4.15;73.88;100545.06;10124457;28;20047;-68
2021/01/31 02:16:23;;;;;;;34.50;17.85;;;;;;;-4.20;73.70;100542.25;10087805;28;20055;-68
2021/01/31 02:21:58;;;;;;;45.78;20.95;;;;;;;-4.12;75.34;100552.63;10090817;28;20055;-67
2021/01/31 02:27:06;;;;;;;39.80;18.77;;;;;;;-4.16;74.25;100554.09;10088843;28;20043;-70
2021/01/31 02:32:27;;;;;;;36.85;18.50;;;;;;;-4.12;74.37;100549.13;10081784;28;20491;-69
2021/01/31 02:37:26;;;;;;;39.58;18.85;;;;;;;-4.19;74.03;100546.53;10103218;28;20081;-68
2021/01/31 02:42:34;;;;;;;39.13;18.20;;;;;;;-4.30;73.56;100547.28;10128040;28;20078;-68
2021/01/31 02:47:33;;;;;;;41.67;17.70;;;;;;;-4.32;73.80;100554.69;10138741;28;20050;-67
2021/01/31 02:52:44;;;;;;;42.42;20.15;;;;;;;-4.28;73.70;100555.91;10125204;28;20121;-68
2021/01/31 02:57:49;;;;;;;36.25;18.02;;;;;;;-4.31;73.56;100545.66;10110281;28;20573;-70
2021/01/31 03:03:13;;;;;;;35.35;17.20;;;;;;;-4.38;74.50;100544.94;10107454;28;20486;-71
2021/01/31 03:08:21;;;;;;;39.92;18.13;;;;;;;-4.32;75.04;100536.81;10103738;28;20055;-71
2021/01/31 03:13:29;;;;;;;37.97;18.58;;;;;;;-4.35;75.51;100526.59;10112660;28;20050;-69
2021/01/31 03:18:38;;;;;;;39.13;19.20;;;;;;;-4.37;75.87;100526.00;10101809;28;20438;-70
2021/01/31 03:23:48;;;;;;;39.33;18.23;;;;;;;-4.48;75.90;100522.25;10129235;28;20046;-70
2021/01/31 03:28:44;;;;;;;39.38;18.70;;;;;;;-4.47;76.72;100520.41;10116674;28;20101;-70
2021/01/31 03:33:47;;;;;;;41.35;18.42;;;;;;;-4.53;75.44;100511.41;10105469;28;20542;-71
2021/01/31 03:38:46;;;;;;;37.28;18.65;;;;;;;-4.61;74.65;100524.25;10094488;28;20106;-71
2021/01/31 03:43:42;;;;;;;41.13;18.58;;;;;;;-4.66;74.36;100517.72;10103328;28;20102;-71
2021/01/31 03:48:46;;;;;;;37.03;17.85;;;;;;;-4.73;74.82;100516.97;10095877;28;20114;-69
2021/01/31 03:53:43;;;;;;;42.85;20.58;;;;;;;-4.76;74.94;100512.06;10098765;28;20121;-68
2021/01/31 03:58:43;;;;;;;41.75;20.60;;;;;;;-4.62;76.62;100502.06;10120848;28;20058;-66
2021/01/31 04:03:47;;;;;;;43.13;19.92;;;;;;;-4.58;77.39;100511.28;10133032;28;20058;-70
2021/01/31 04:08:47;;;;;;;43.42;20.67;;;;;;;-4.50;77.74;100521.66;10126581;28;20089;-71
2021/01/31 04:13:44;;;;;;;41.53;18.27;;;;;;;-4.47;77.66;100507.84;10127855;28;20133;-65
2021/01/31 04:18:40;;;;;;;43.58;19.90;;;;;;;-4.56;76.70;100506.53;10122561;28;20395;-68
2021/01/31 04:23:35;;;;;;;38.78;19.27;;;;;;;-4.52;76.47;100509.56;10098024;28;20051;-68
2021/01/31 04:28:31;;;;;;;40.22;19.92;;;;;;;-4.55;76.53;100508.19;10123523;28;20086;-67
2021/01/31 04:33:27;;;;;;;46.13;19.63;;;;;;;-4.54;76.68;100504.44;10130480;28;20523;-68
2021/01/31 04:38:23;;;;;;;39.00;18.48;;;;;;;-4.59;76.42;100501.66;10096322;28;20051;-66
2021/01/31 04:43:22;;;;;;;46.28;20.15;;;;;;;-4.52;77.59;100494.38;10129533;28;20046;-68
2021/01/31 04:48:44;;;;;;;42.55;20.67;;;;;;;-4.51;77.22;100498.66;10101453;28;20050;-69
2021/01/31 04:54:00;;;;;;;41.15;19.70;;;;;;;-4.61;77.05;100493.03;10113062;28;20078;-68
2021/01/31 04:59:16;;;;;;;40.72;18.25;;;;;;;-4.65;76.78;100492.66;10132217;28;20059;-68
2021/01/31 05:04:13;;;;;;;44.97;21.45;;;;;;;-4.72;77.21;100485.78;10131911;28;20073;-69
2021/01/31 05:09:25;;;;;;;37.65;17.95;;;;;;;-4.73;77.06;100489.50;10121492;28;20051;-67
2021/01/31 05:14:41;;;;;;;38.20;18.23;;;;;;;-4.70;76.27;100499.72;10122105;28;20056;-68
2021/01/31 05:19:38;;;;;;;36.67;17.35;;;;;;;-4.73;75.83;100497.50;10126682;28;20094;-67
2021/01/31 05:24:34;;;;;;;36.17;17.35;;;;;;;-4.83;75.81;100499.84;10089688;28;20097;-67
2021/01/31 05:29:36;;;;;;;33.33;17.23;;;;;;;-4.90;75.54;100506.09;10127195;28;20054;-70
2021/01/31 05:34:43;;;;;;;33.17;17.77;;;;;;;-4.86;75.13;100507.25;10080391;28;20474;-70
2021/01/31 05:39:58;;;;;;;32.00;17.17;;;;;;;-4.86;74.86;100506.44;10094350;28;20050;-69
2021/01/31 05:45:10;;;;;;;34.72;18.20;;;;;;;-4.81;75.11;100505.78;10127945;28;20101;-67
2021/01/31 05:50:31;;;;;;;35.08;17.92;;;;;;;-4.87;74.66;100516.31;10128355;28;20090;-69
2021/01/31 05:55:30;;;;;;;35.20;17.33;;;;;;;-5.08;74.41;100524.72;10108601;28;20047;-68
2021/01/31 06:00:32;;;;;;;30.95;15.68;;;;;;;-5.08;73.83;100530.06;10133935;28;20054;-69
2021/01/31 06:05:30;;;;;;;36.88;18.67;;;;;;;-5.11;73.70;100525.94;10104768;28;20050;-69
2021/01/31 06:10:28;;;;;;;37.42;17.90;;;;;;;-5.18;73.64;100530.53;10140295;28;20504;-69
2021/01/31 06:15:42;;;;;;;32.30;17.23;;;;;;;-5.07;74.16;100515.69;10133311;28;20502;-69
2021/01/31 06:20:42;;;;;;;36.38;16.80;;;;;;;-5.23;74.74;100516.25;10140695;28;20054;-68
2021/01/31 06:25:40;;;;;;;32.55;16.67;;;;;;;-4.97;74.92;100521.31;10127717;28;20531;-68
2021/01/31 06:31:08;;;;;;;31.42;16.50;;;;;;;-4.88;74.93;100520.00;10110513;28;20104;-68
2021/01/31 06:36:37;;;;;;;40.33;18.08;;;;;;;-4.70;75.00;100531.72;10131073;28;20050;-67
2021/01/31 06:41:33;;;;;;;33.88;16.50;;;;;;;-4.54;74.51;100525.81;10119379;28;20046;-69
2021/01/31 06:46:42;;;;;;;31.02;16.77;;;;;;;-4.46;74.16;100530.03;10102274;28;20062;-68
2021/01/31 06:51:56;;;;;;;30.80;16.67;;;;;;;-4.33;73.41;100521.06;10098880;28;20047;-69
2021/01/31 06:56:55;;;;;;;;;;;;;;;-4.36;74.10;100522.31;10112429;28;20142;-68
2021/01/31 07:02:28;;;;;;;33.90;17.13;;;;;;;-4.31;74.59;100518.97;10096119;28;19973;-71
2021/01/31 07:07:58;;;;;;;32.97;16.23;;;;;;;-4.25;73.69;100528.75;10083222;28;20430;-69
2021/01/31 07:12:57;;;;;;;34.75;17.65;;;;;;;-4.49;74.24;100544.63;10095322;28;20124;-68
2021/01/31 07:18:01;;;;;;;31.98;16.20;;;;;;;-4.24;75.79;100549.06;10092803;28;20083;-68
2021/01/31 07:23:04;;;;;;;30.13;16.20;;;;;;;-4.13;75.75;100547.50;10088955;28;20110;-67
2021/01/31 07:28:04;;;;;;;30.77;16.07;;;;;;;-3.97;74.96;100536.19;10089636;28;20102;-70
2021/01/31 07:33:09;;;;;;;30.67;15.40;;;;;;;-4.04;74.85;100541.63;10096023;28;20051;-68
2021/01/31 07:38:14;;;;;;;29.52;15.10;;;;;;;-3.84;75.15;100543.22;10091224;28;20098;-70
2021/01/31 07:43:16;;;;;;;31.45;15.68;;;;;;;-3.78;75.14;100534.31;10097063;28;20081;-69
2021/01/31 07:48:52;;;;;;;30.95;15.23;;;;;;;-3.63;75.73;100541.88;10094301;28;20047;-67
2021/01/31 07:53:49;;;;;;;30.85;14.40;;;;;;;-3.52;76.01;100542.97;10097879;28;20086;-68
2021/01/31 07:58:45;;;;;;;27.33;13.63;;;;;;;-3.35;77.15;100538.56;10098285;28;20055;-68
2021/01/31 08:03:42;;;;;;;30.02;14.25;;;;;;;-3.20;76.43;100552.31;10129462;28;20062;-65
2021/01/31 08:08:51;;;;;;;23.80;10.88;;;;;;;-3.23;76.55;100547.41;10132956;28;20081;-69
2021/01/31 08:13:52;;;;;;;21.27;9.98;;;;;;;-3.22;76.09;100554.41;10096258;28;20047;-67
2021/01/31 08:19:14;;;;;;;21.15;10.38;;;;;;;-3.20;76.93;100556.88;10115999;28;20051;-68
2021/01/31 08:24:11;;;;;;;24.38;10.40;;;;;;;-3.26;76.55;100547.09;10115584;28;20066;-68
2021/01/31 08:29:20;;;;;;;20.48;9.32;;;;;;;-2.98;75.72;100555.25;10097439;28;20042;-65
2021/01/31 08:34:16;;;;;;;18.38;7.82;;;;;;;-2.85;75.68;100564.91;10099913;28;20090;-69
2021/01/31 08:39:29;;;;;;;15.60;7.10;;;;;;;-2.68;75.62;100567.69;10114320;28;20054;-68
2021/01/31 08:44:25;;;;;;;13.85;7.05;;;;;;;-2.70;74.96;100560.94;10084169;28;20109;-67
2021/01/31 08:49:21;;;;;;;12.05;6.07;;;;;;;-2.58;74.74;100559.06;10079500;28;20053;-67
2021/01/31 08:54:22;;;;;;;13.20;6.40;;;;;;;-2.67;74.80;100560.47;10088072;28;20039;-66
2021/01/31 08:59:25;;;;;;;16.85;7.57;;;;;;;-2.51;74.62;100554.41;10093879;28;20059;-68
2021/01/31 09:04:21;;;;;;;15.15;8.23;;;;;;;-2.33;74.30;100551.56;10079713;28;20047;-67
2021/01/31 09:09:23;;;;;;;16.50;7.80;;;;;;;-2.48;74.20;100545.91;10083080;28;20043;-67
2021/01/31 09:14:23;;;;;;;16.25;8.05;;;;;;;-2.65;74.32;100553.03;10080446;28;20082;-66
2021/01/31 09:19:25;;;;;;;20.25;8.98;;;;;;;-2.47;74.14;100549.41;10086252;28;20548;-68
2021/01/31 09:24:22;;;;;;;20.23;9.32;;;;;;;-2.37;74.62;100550.44;10088975;28;20054;-68
2021/01/31 09:29:22;;;;;;;16.65;8.30;;;;;;;-2.35;74.53;100532.25;10079920;28;20480;-68
2021/01/31 09:34:32;;;;;;;16.52;9.32;;;;;;;-2.20;73.93;100539.00;10082332;28;20483;-68
2021/01/31 09:39:29;;;;;;;18.27;9.57;;;;;;;-2.12;73.30;100547.44;10087759;28;20058;-70
2021/01/31 09:44:25;;;;;;;19.83;10.13;;;;;;;-1.85;72.88;100546.09;10078216;28;20051;-68
2021/01/31 09:49:28;;;;;;;18.08;9.70;;;;;;;-1.61;72.47;100547.59;10081172;28;20484;-69
2021/01/31 09:54:35;;;;;;;19.47;11.00;;;;;;;-1.49;71.25;100551.00;10072982;28;20059;-68
2021/01/31 09:59:35;;;;;;;19.15;9.55;;;;;;;-1.52;71.35;100553.38;10083292;28;20047;-68
2021/01/31 10:04:35;;;;;;;20.15;9.68;;;;;;;-1.26;71.07;100570.72;10091782;28;20051;-68
2021/01/31 10:09:39;;;;;;;21.88;10.32;;;;;;;-1.22;70.25;100566.50;10081823;28;20415;-68
2021/01/31 10:14:42;;;;;;;17.08;9.57;;;;;;;-1.15;69.45;100572.53;10088722;28;20414;-62
2021/01/31 10:19:39;;;;;;;16.40;9.60;;;;;;;-1.14;69.55;100563.44;10071314;28;20447;-64
2021/01/31 10:24:35;;;;;;;20.02;10.25;;;;;;;-1.20;69.91;100575.13;10085195;28;20055;-63
2021/01/31 10:29:32;;;;;;;16.60;8.00;;;;;;;-1.53;70.24;100560.63;10078455;28;20087;-63
2021/01/31 10:34:41;;;;;;;22.65;11.30;;;;;;;-1.34;70.15;100558.53;10081642;28;20518;-68
2021/01/31 10:39:37;;;;;;;19.05;9.98;;;;;;;-1.23;69.75;100553.31;10091191;28;20046;-68
2021/01/31 10:44:33;;;;;;;20.00;10.65;;;;;;;-0.94;69.58;100562.91;10085113;28;20062;-66
2021/01/31 10:49:30;;;;;;;20.20;11.15;;;;;;;-0.35;67.40;100559.72;10091463;28;20062;-67
2021/01/31 10:54:26;;;;;;;22.38;10.75;;;;;;;-0.53;67.35;100546.59;10077441;28;20913;-66
2021/01/31 10:59:23;;;;;;;19.02;9.50;;;;;;;-0.50;66.97;100556.84;10077205;28;20055;-67
2021/01/31 11:04:20;;;;;;;18.23;9.70;;;;;;;-0.38;67.42;100554.84;10075931;28;20054;-68
2021/01/31 11:09:16;;;;;;;17.67;10.50;;;;;;;-0.03;66.41;100546.41;10093941;28;20047;-67
2021/01/31 11:14:13;;;;;;;20.33;10.68;;;;;;;-0.12;66.59;100531.78;10087268;28;20042;-67
2021/01/31 11:19:09;;;;;;;19.83;9.73;;;;;;;0.19;65.10;100524.88;10083014;28;20138;-68
2021/01/31 11:24:06;;;;;;;18.85;10.48;;;;;;;0.32;64.55;100522.84;10093123;28;20527;-67
2021/01/31 11:29:03;;;;;;;18.85;10.60;;;;;;;0.56;64.61;100517.97;10092691;28;20042;-67
2021/01/31 11:34:01;;;;;;;18.17;10.50;;;;;;;0.99;63.74;100519.63;10135385;28;20057;-67
2021/01/31 11:39:05;;;;;;;16.38;9.32;;;;;;;1.32;62.12;100523.06;10112938;28;20068;-67
2021/01/31 11:44:04;;;;;;;18.27;9.10;;;;;;;1.33;61.28;100519.31;10105782;28;20141;-67
2021/01/31 11:49:00;;;;;;;15.27;8.32;;;;;;;1.23;61.38;100508.47;10097456;28;20051;-67
2021/01/31 11:53:56;;;;;;;16.40;9.85;;;;;;;1.59;61.14;100511.34;10097327;28;20082;-67
2021/01/31 11:58:53;;;;;;;15.23;8.93;;;;;;;1.95;59.74;100504.22;10094021;28;20051;-67
2021/01/31 12:03:49;;;;;;;15.40;8.05;;;;;;;2.03;58.74;100505.56;10106353;28;20470;-67
2021/01/31 12:08:46;;;;;;;14.50;8.02;;;;;;;2.06;56.96;100494.25;10127517;28;20486;-67
2021/01/31 12:13:42;;;;;;;15.13;9.10;;;;;;;2.14;57.64;100482.94;10111805;28;20046;-67
2021/01/31 12:18:38;;;;;;;14.38;8.45;;;;;;;2.49;57.98;100476.78;10110710;28;20130;-67
2021/01/31 12:23:35;;;;;;;14.48;8.35;;;;;;;2.29;56.91;100476.75;10088569;28;20047;-67
2021/01/31 12:28:31;;;;;;;19.10;9.07;;;;;;;2.42;56.55;100465.44;10135302;28;20753;-66
2021/01/31 12:33:28;;;;;;;14.98;7.80;;;;;;;2.52;54.84;100464.63;10110284;28;20462;-67
2021/01/31 12:38:26;;;;;;;13.43;7.85;;;;;;;2.47;54.64;100468.13;10117685;28;20061;-67
2021/01/31 12:43:25;;;;;;;13.75;8.18;;;;;;;2.96;54.63;100445.13;10095185;28;20043;-67
2021/01/31 12:48:21;;;;;;;13.15;8.25;;;;;;;3.46;54.38;100448.78;10067774;28;20051;-67
2021/01/31 12:53:17;;;;;;;13.75;7.80;;;;;;;3.72;51.87;100445.94;10084027;28;20057;-66
2021/01/31 12:58:13;;;;;;;13.50;7.60;;;;;;;4.16;49.80;100443.22;10078537;28;20053;-67
2021/01/31 13:03:13;;;;;;;12.80;8.00;;;;;;;4.92;50.09;100429.28;10075682;28;20043;-67
2021/01/31 13:08:09;;;;;;;15.90;7.78;;;;;;;5.14;47.64;100429.59;10081551;28;20138;-66
2021/01/31 13:13:06;;;;;;;14.30;8.43;;;;;;;5.04;46.95;100424.31;10081205;28;20070;-67
2021/01/31 13:18:02;;;;;;;15.48;8.85;;;;;;;4.77;48.14;100420.25;10088246;28;20047;-67
2021/01/31 13:22:58;;;;;;;13.48;7.88;;;;;;;5.09;47.22;100404.47;10109437;28;20570;-66
2021/01/31 13:27:57;;;;;;;11.80;6.68;;;;;;;4.48;47.84;100403.19;10079794;28;20066;-66
2021/01/31 13:32:53;;;;;;;12.02;6.88;;;;;;;4.39;47.64;100398.41;10088034;28;20043;-66
2021/01/31 13:37:49;;;;;;;12.35;7.55;;;;;;;3.85;48.53;100399.31;10086502;28;20145;-65
2021/01/31 13:42:46;;;;;;;11.90;7.03;;;;;;;3.86;49.08;100390.16;10088295;28;20562;-65
2021/01/31 13:47:42;;;;;;;12.55;7.53;;;;;;;3.63;50.65;100398.94;10088061;28;20043;-67
2021/01/31 13:52:38;;;;;;;12.68;6.80;;;;;;;3.96;48.70;100395.47;10090185;28;20047;-68
2021/01/31 13:57:35;;;;;;;14.20;7.25;;;;;;;4.08;49.29;100381.59;10093258;28;20589;-67
2021/01/31 14:02:32;;;;;;;12.35;7.05;;;;;;;3.63;49.03;100371.91;10080555;28;20134;-67
2021/01/31 14:07:28;;;;;;;13.88;7.72;;;;;;;3.17;51.17;100373.75;10085950;28;20168;-67
2021/01/31 14:12:25;;;;;;;12.10;6.72;;;;;;;3.39;50.68;100372.59;10084310;28;20073;-67
2021/01/31 14:17:21;;;;;;;14.68;7.30;;;;;;;3.36;51.53;100370.41;10086754;28;20042;-65
2021/01/31 14:22:17;;;;;;;14.43;8.20;;;;;;;3.26;52.03;100365.88;10077591;28;20082;-66
2021/01/31 14:27:13;;;;;;;14.18;7.97;;;;;;;3.40;52.09;100368.78;10090082;28;20062;-67
2021/01/31 14:32:11;;;;;;;11.82;7.38;;;;;;;3.16;50.95;100357.84;10101644;28;20054;-66
2021/01/31 14:37:07;;;;;;;12.25;7.13;;;;;;;3.21;51.81;100357.00;10094626;28;20061;-67
2021/01/31 14:42:03;;;;;;;12.70;6.60;;;;;;;3.00;52.06;100343.56;10090911;28;20137;-66
2021/01/31 14:46:59;;;;;;;12.25;7.20;;;;;;;3.05;52.39;100327.34;10085161;28;20075;-66
2021/01/31 14:51:56;;;;;;;13.63;6.85;;;;;;;3.31;53.26;100319.91;10083943;28;20059;-67
2021/01/31 14:56:53;;;;;;;12.80;8.05;;;;;;;3.16;53.16;100314.59;10084334;28;20221;-66
2021/01/31 15:01:51;;;;;;;11.70;7.35;;;;;;;2.94;54.12;100309.56;10092129;28;20054;-66
2021/01/31 15:06:49;;;;;;;13.13;7.85;;;;;;;2.72;55.27;100308.03;10083852;28;20121;-67
2021/01/31 15:11:46;;;;;;;15.05;9.15;;;;;;;2.47;54.82;100305.41;10088128;28;20062;-66
2021/01/31 15:16:45;;;;;;;12.38;7.35;;;;;;;2.27;57.79;100301.66;10089642;28;20054;-66
2021/01/31 15:21:41;;;;;;;13.52;8.10;;;;;;;2.12;58.08;100290.91;10085282;28;20463;-67
2021/01/31 15:26:37;;;;;;;16.27;9.40;;;;;;;1.92;58.24;100289.03;10089425;28;20047;-66
2021/01/31 15:31:33;;;;;;;16.80;9.40;;;;;;;1.79;59.66;100290.38;10097168;28;20047;-66
2021/01/31 15:36:30;;;;;;;16.25;9.02;;;;;;;1.68;60.55;100294.16;10123479;28;20138;-67
2021/01/31 15:41:27;;;;;;;15.70;9.07;;;;;;;1.55;60.62;100289.28;10087386;28;20431;-66
2021/01/31 15:46:27;;;;;;;15.43;8.68;;;;;;;1.40;60.80;100287.38;10087300;28;20048;-66
2021/01/31 15:51:23;;;;;;;13.70;8.18;;;;;;;1.32;61.56;100280.63;10103999;28;20101;-66
2021/01/31 15:56:19;;;;;;;17.23;9.43;;;;;;;1.26;61.23;100281.72;10105557;28;20047;-66
2021/01/31 16:01:15;;;;;;;17.33;10.60;;;;;;;1.26;60.53;100281.72;10097913;28;20050;-70
2021/01/31 16:06:12;;;;;;;22.70;10.65;;;;;;;1.14;61.30;100275.75;10097489;28;20053;-66
2021/01/31 16:11:08;;;;;;;17.92;10.70;;;;;;;0.98;61.74;100280.28;10077538;28;20114;-67
2021/01/31 16:16:10;;;;;;;21.65;11.23;;;;;;;0.88;61.98;100275.66;10097290;28;20050;-68
2021/01/31 16:21:09;;;;;;;18.60;10.77;;;;;;;0.79;62.31;100272.69;10083190;28;20202;-67
2021/01/31 16:26:06;;;;;;;18.70;11.25;;;;;;;0.68;63.10;100270.22;10081581;28;20110;-67
2021/01/31 16:31:05;;;;;;;19.77;10.98;;;;;;;0.58;63.70;100260.22;10087590;28;20864;-68
2021/01/31 16:36:04;;;;;;;21.17;11.55;;;;;;;0.50;64.42;100253.47;10099138;28;20050;-68
2021/01/31 16:41:01;;;;;;;22.10;11.82;;;;;;;0.35;65.16;100256.91;10113311;28;20047;-67
2021/01/31 16:45:58;;;;;;;19.58;11.60;;;;;;;0.38;65.10;100255.56;10084739;28;20047;-67
2021/01/31 16:50:56;;;;;;;21.52;11.70;;;;;;;0.42;64.86;100253.97;10082586;28;20039;-68
2021/01/31 16:55:53;;;;;;;21.67;12.32;;;;;;;0.38;65.92;100244.81;10088798;28;20062;-69
2021/01/31 17:00:51;;;;;;;19.42;12.18;;;;;;;0.27;66.68;100248.50;10089095;28;20047;-69
2021/01/31 17:05:48;;;;;;;20.17;11.68;;;;;;;0.36;66.13;100242.38;10084308;28;20055;-65
2021/01/31 17:10:45;;;;;;;20.98;13.00;;;;;;;0.32;66.40;100245.84;10099444;28;20065;-68
2021/01/31 17:15:41;;;;;;;23.55;12.93;;;;;;;0.31;66.69;100244.22;10080888;28;20385;-68
2021/01/31 17:20:37;;;;;;;18.67;10.85;;;;;;;0.23;66.85;100236.66;10111119;28;20057;-68
2021/01/31 17:25:33;;;;;;;20.85;11.35;;;;;;;0.13;67.54;100227.44;10124030;28;20125;-68
2021/01/31 17:30:33;;;;;;;21.58;10.82;;;;;;;0.07;67.37;100243.81;10121754;28;20061;-70
2021/01/31 17:35:29;;;;;;;21.08;12.93;;;;;;;-0.01;67.68;100226.28;10115800;28;20099;-68
2021/01/31 17:40:28;;;;;;;21.45;11.85;;;;;;;0.07;66.98;100228.50;10139505;28;20070;-66
2021/01/31 17:45:28;;;;;;;24.45;11.80;;;;;;;-0.01;67.18;100231.66;10130126;28;20047;-66
2021/01/31 17:50:29;;;;;;;24.33;12.73;;;;;;;-0.03;67.27;100228.44;10133586;28;20042;-67
2021/01/31 17:55:25;;;;;;;23.25;12.35;;;;;;;-0.17;67.83;100232.63;10137684;28;20062;-69
2021/01/31 18:00:29;;;;;;;21.83;13.13;;;;;;;-0.28;68.48;100226.38;10144265;28;22532;-68
2021/01/31 18:05:28;;;;;;;22.67;13.13;;;;;;;-0.43;68.83;100216.34;10145912;28;20539;-68
2021/01/31 18:10:32;;;;;;;24.85;13.48;;;;;;;-0.42;68.83;100220.63;10129134;28;20065;-68
2021/01/31 18:15:30;;;;;;;22.77;12.95;;;;;;;-0.52;69.20;100212.50;10126762;28;20110;-67
2021/01/31 18:20:27;;;;;;;21.95;12.15;;;;;;;-0.61;68.99;100211.34;10124958;28;20050;-68
2021/01/31 18:25:24;;;;;;;22.90;12.15;;;;;;;-0.64;69.66;100208.09;10124670;28;20422;-67
2021/01/31 18:30:24;;;;;;;24.02;12.85;;;;;;;-0.70;69.78;100209.13;10123439;28;20054;-68
2021/01/31 18:35:23;;;;;;;27.50;14.65;;;;;;;-0.60;69.75;100218.31;10125993;28;20059;-66
2021/01/31 18:40:22;;;;;;;29.10;14.80;;;;;;;-0.74;70.51;100218.78;10095317;28;20103;-67
2021/01/31 18:45:20;;;;;;;26.90;15.50;;;;;;;-0.73;71.08;100214.22;10087787;28;20805;-67
2021/01/31 18:50:21;;;;;;;26.65;14.35;;;;;;;-0.76;71.32;100204.78;10105232;28;20082;-66
2021/01/31 18:55:18;;;;;;;26.73;15.15;;;;;;;-0.76;71.21;100209.34;10093713;28;20466;-66
2021/01/31 19:00:23;;;;;;;27.80;14.30;;;;;;;-0.90;71.78;100198.22;10089231;28;20128;-67
2021/01/31 19:05:20;;;;;;;29.77;15.18;;;;;;;-0.95;71.93;100200.84;10095598;28;20082;-67
2021/01/31 19:10:19;;;;;;;26.27;13.27;;;;;;;-1.15;72.22;100196.91;10083960;28;20058;-67
2021/01/31 19:15:16;;;;;;;28.30;14.15;;;;;;;-1.04;72.48;100194.31;10084963;28;20168;-67
2021/01/31 19:20:19;;;;;;;25.85;14.15;;;;;;;-1.14;72.14;100182.44;10087074;28;20059;-68
2021/01/31 19:25:16;;;;;;;24.70;13.70;;;;;;;-1.16;72.28;100184.56;10097614;28;20053;-68
2021/01/31 19:30:25;;;;;;;24.77;13.70;;;;;;;-1.19;72.44;100182.38;10098301;28;20106;-68
2021/01/31 19:35:23;;;;;;;24.33;14.27;;;;;;;-1.26;72.16;100171.03;10085805;28;20062;-67
2021/01/31 19:40:21;;;;;;;23.95;13.68;;;;;;;-1.25;72.63;100174.50;10096308;28;20446;-68
2021/01/31 19:45:22;;;;;;;26.48;14.35;;;;;;;-1.26;72.18;100168.34;10097176;28;20125;-68
2021/01/31 19:50:19;;;;;;;25.77;13.95;;;;;;;-1.35;72.53;100176.03;10093550;28;20070;-67
2021/01/31 19:55:17;;;;;;;26.35;14.30;;;;;;;-1.36;72.83;100174.41;10087316;28;20451;-68
2021/01/31 20:00:19;;;;;;;28.38;14.80;;;;;;;-1.36;73.08;100173.63;10103498;28;20798;-67
2021/01/31 20:05:16;;;;;;;26.08;14.48;;;;;;;-1.34;73.03;100171.50;10093878;28;20109;-67
2021/01/31 20:10:13;;;;;;;28.17;14.68;;;;;;;-1.41;73.03;100165.53;10083370;28;20051;-67
2021/01/31 20:15:09;;;;;;;25.88;14.25;;;;;;;-1.51;73.48;100153.63;10083628;28;20043;-67
2021/01/31 20:20:07;;;;;;;29.67;16.05;;;;;;;-1.56;73.02;100145.50;10095883;28;20522;-67
2021/01/31 20:25:06;;;;;;;25.63;14.07;;;;;;;-1.64;73.27;100148.63;10108557;28;20046;-68
2021/01/31 20:30:06;;;;;;;27.42;14.15;;;;;;;-1.66;73.19;100148.06;10130411;28;20057;-67
2021/01/31 20:35:06;;;;;;;30.10;15.82;;;;;;;-1.67;73.01;100141.09;10092918;28;20042;-67
2021/01/31 20:40:07;;;;;;;28.90;16.25;;;;;;;-1.59;72.84;100137.97;10093516;28;20055;-67
2021/01/31 20:45:05;;;;;;;27.08;15.50;;;;;;;-1.68;72.68;100144.84;10134768;28;20050;-66
2021/01/31 20:50:04;;;;;;;29.40;15.70;;;;;;;-1.74;72.55;100143.16;10095884;28;20109;-66
2021/01/31 20:55:02;;;;;;;25.45;13.90;;;;;;;-1.73;72.69;100131.38;10088823;28;20057;-66
2021/01/31 20:59:58;;;;;;;26.10;14.77;;;;;;;-1.73;71.99;100124.13;10083734;28;20046;-66
2021/01/31 21:04:54;;;;;;;29.80;16.00;;;;;;;-1.58;71.82;100123.53;10088184;28;20079;-67
2021/01/31 21:09:50;;;;;;;32.25;15.95;;;;;;;-1.86;71.72;100118.34;10078934;28;20679;-63
2021/01/31 21:14:46;;;;;;;32.95;17.05;;;;;;;-1.68;71.81;100112.66;10085336;28;20051;-70
2021/01/31 21:19:42;;;;;;;33.65;17.33;;;;;;;-1.70;71.40;100109.44;10089612;28;20047;-67
2021/01/31 21:24:38;;;;;;;29.40;16.85;;;;;;;-1.81;71.66;100113.03;10074418;28;20039;-68
2021/01/31 21:29:34;;;;;;;31.95;16.73;;;;;;;-1.96;72.42;100117.16;10091588;28;20141;-69
2021/01/31 21:34:30;;;;;;;29.33;15.27;;;;;;;-2.15;72.74;100113.19;10086103;28;20486;-70
2021/01/31 21:39:27;;;;;;;30.58;16.65;;;;;;;-2.22;72.77;100101.84;10076869;28;20118;-69
2021/01/31 21:44:23;;;;;;;35.33;18.00;;;;;;;-2.29;72.39;100098.53;10085800;28;20089;-68
2021/01/31 21:49:19;;;;;;;32.28;17.02;;;;;;;-2.25;72.37;100086.25;10081972;28;20098;-69
2021/01/31 21:54:15;;;;;;;33.60;17.20;;;;;;;-2.37;72.43;100084.53;10089361;28;20071;-70
2021/01/31 21:59:11;;;;;;;28.48;16.70;;;;;;;-2.47;72.78;100081.69;10090489;28;20054;-68
2021/01/31 22:04:07;;;;;;;30.58;16.55;;;;;;;-2.56;72.22;100065.25;10086453;28;20051;-69
2021/01/31 22:09:04;;;;;;;33.22;17.83;;;;;;;-2.68;73.28;100074.44;10074929;28;20047;-70
2021/01/31 22:13:59;;;;;;;32.70;16.40;;;;;;;-2.78;72.97;100073.25;10091834;28;20070;-71
2021/01/31 22:18:55;;;;;;;36.40;18.02;;;;;;;-2.82;73.28;100061.41;10079612;28;20043;-68
2021/01/31 22:23:51;;;;;;;35.28;18.95;;;;;;;-2.85;73.35;100066.44;10105360;28;20600;-69
2021/01/31 22:28:47;;;;;;;36.10;17.58;;;;;;;-3.38;75.22;100068.53;10111767;28;20059;-70
2021/01/31 22:33:44;;;;;;;29.80;17.10;;;;;;;-3.11;74.50;100066.06;10125575;28;20050;-69
2021/01/31 22:38:40;;;;;;;32.10;15.93;;;;;;;-3.24;74.00;100064.50;10107775;28;20078;-69